createdAt,value
2022-08-03T00:00:26.209Z,4.07
2022-08-03T00:02:53.029Z,3.13
2022-08-03T00:05:19.824Z,2.20
2022-08-03T00:07:46.217Z,3.75
2022-08-03T00:10:15.030Z,2.70
2022-08-03T00:12:41.409Z,4.30
2022-08-03T00:15:11.142Z,1.77
2022-08-03T00:17:53.539Z,2.60
2022-08-03T00:20:21.856Z,4.30
2022-08-03T00:22:49.441Z,7.07
2022-08-03T00:25:15.992Z,7.10
2022-08-03T00:27:42.482Z,3.83
2022-08-03T00:30:09.616Z,5.25
2022-08-03T00:32:36.073Z,4.57
2022-08-03T00:35:07.941Z,2.77
2022-08-03T00:37:40.815Z,2.47
2022-08-03T00:40:10.517Z,4.35
2022-08-03T00:42:46.867Z,4.82
2022-08-03T00:45:13.339Z,3.25
2022-08-03T00:47:39.737Z,3.43
2022-08-03T00:50:06.602Z,4.60
2022-08-03T00:52:33.021Z,2.33
2022-08-03T00:55:00.962Z,3.80
2022-08-03T00:57:30.005Z,4.30
2022-08-03T00:59:56.463Z,3.23
2022-08-03T01:02:22.941Z,1.88
2022-08-03T01:04:49.588Z,4.57
2022-08-03T01:07:35.785Z,2.50
2022-08-03T01:10:32.807Z,5.43
2022-08-03T01:13:13.988Z,2.17
2022-08-03T01:16:15.364Z,4.90
2022-08-03T01:18:52.516Z,4.20
2022-08-03T01:21:26.915Z,3.22
2022-08-03T01:24:22.547Z,2.95
2022-08-03T01:27:10.739Z,3.83
2022-08-03T01:29:49.584Z,5.78
2022-08-03T01:32:59.977Z,3.05
2022-08-03T01:35:13.018Z,2.30
2022-08-03T01:37:45.847Z,4.40
2022-08-03T01:40:14.243Z,5.77
2022-08-03T01:42:42.679Z,3.50
2022-08-03T01:45:12.644Z,4.95
2022-08-03T01:47:40.483Z,4.97
2022-08-03T01:50:08.957Z,4.35
2022-08-03T01:52:40.381Z,3.53
2022-08-03T01:55:08.678Z,3.45
2022-08-03T01:58:06.199Z,6.18
2022-08-03T02:00:25.831Z,5.63
2022-08-03T02:02:54.684Z,6.05
2022-08-03T02:05:22.051Z,4.47
2022-08-03T02:07:49.904Z,3.65
2022-08-03T02:10:34.345Z,6.63
2022-08-03T02:13:05.081Z,3.60
2022-08-03T02:15:33.889Z,5.15
2022-08-03T02:18:03.147Z,3.70
2022-08-03T02:20:33.139Z,5.15
2022-08-03T02:23:00.129Z,3.88
2022-08-03T02:25:27.048Z,3.22
2022-08-03T02:27:58.013Z,6.22
2022-08-03T02:30:31.531Z,5.83
2022-08-03T02:32:59.248Z,5.03
2022-08-03T02:35:28.568Z,6.15
2022-08-03T02:38:01.061Z,4.57
2022-08-03T02:40:29.688Z,3.97
2022-08-03T02:42:59.521Z,6.00
2022-08-03T02:45:27.742Z,6.07
2022-08-03T02:47:58.094Z,4.35
2022-08-03T02:50:25.896Z,7.47
2022-08-03T02:52:53.934Z,8.23
2022-08-03T02:55:22.839Z,6.20
2022-08-03T02:57:50.321Z,7.15
2022-08-03T03:00:27.573Z,5.68
2022-08-03T03:02:57.898Z,6.68
2022-08-03T03:05:52.873Z,6.15
2022-08-03T03:08:18.017Z,5.43
2022-08-03T03:10:46.506Z,4.50
2022-08-03T03:13:15.501Z,4.32
2022-08-03T03:15:44.173Z,6.18
2022-08-03T03:18:11.279Z,5.72
2022-08-03T03:20:40.840Z,9.23
2022-08-03T03:23:09.101Z,3.50
2022-08-03T03:25:36.251Z,6.57
2022-08-03T03:28:03.709Z,10.00
2022-08-03T03:30:34.176Z,5.38
2022-08-03T03:33:00.939Z,5.77
2022-08-03T03:35:28.061Z,9.52
2022-08-03T03:37:54.777Z,6.57
2022-08-03T03:40:22.246Z,6.38
2022-08-03T03:42:50.052Z,7.47
2022-08-03T03:45:16.997Z,8.20
2022-08-03T03:47:43.686Z,6.97
2022-08-03T03:50:11.005Z,5.22
2022-08-03T03:52:37.571Z,4.95
2022-08-03T03:55:04.287Z,4.28
2022-08-03T03:57:30.733Z,3.83
2022-08-03T03:59:57.149Z,5.60
2022-08-03T04:02:23.851Z,5.22
2022-08-03T04:05:08.934Z,8.02
2022-08-03T04:08:28.692Z,3.50
2022-08-03T04:11:14.777Z,4.97
2022-08-03T04:13:47.374Z,5.45
2022-08-03T04:16:18.185Z,7.10
2022-08-03T04:18:54.558Z,7.82
2022-08-03T04:21:23.517Z,6.75
2022-08-03T04:23:52.986Z,8.67
2022-08-03T04:26:22.659Z,7.18
2022-08-03T04:28:51.338Z,7.88
2022-08-03T04:31:20.406Z,6.68
2022-08-03T04:33:47.401Z,5.30
2022-08-03T04:36:18.876Z,5.30
2022-08-03T04:38:59.339Z,7.05
2022-08-03T04:41:27.353Z,7.35
2022-08-03T04:43:56.100Z,8.25
2022-08-03T04:46:26.215Z,8.65
2022-08-03T04:48:53.140Z,7.27
2022-08-03T04:51:20.154Z,7.47
2022-08-03T04:53:46.676Z,11.25
2022-08-03T04:56:13.233Z,8.52
2022-08-03T04:58:40.233Z,8.35
2022-08-03T05:01:07.159Z,7.67
2022-08-03T05:03:33.664Z,8.70
2022-08-03T05:06:01.577Z,7.57
2022-08-03T05:08:36.018Z,7.47
2022-08-03T05:11:12.969Z,4.07
2022-08-03T05:13:39.352Z,7.50
2022-08-03T05:16:05.755Z,7.30
2022-08-03T05:18:32.259Z,9.18
2022-08-03T05:20:58.758Z,5.88
2022-08-03T05:23:25.161Z,6.68
2022-08-03T05:25:51.615Z,9.23
2022-08-03T05:28:18.064Z,10.20
2022-08-03T05:30:44.675Z,7.82
2022-08-03T05:33:11.303Z,6.03
2022-08-03T05:35:57.938Z,5.57
2022-08-03T05:38:33.117Z,6.00
2022-08-03T05:41:21.590Z,6.13
2022-08-03T05:43:49.060Z,6.90
2022-08-03T05:46:15.585Z,7.68
2022-08-03T05:48:42.594Z,7.13
2022-08-03T05:51:11.432Z,5.43
2022-08-03T05:53:39.715Z,9.10
2022-08-03T05:56:14.895Z,8.20
2022-08-03T05:58:48.434Z,8.43
2022-08-03T06:01:16.290Z,9.20
2022-08-03T06:03:42.905Z,9.00
2022-08-03T06:06:09.600Z,8.43
2022-08-03T06:08:36.078Z,10.65
2022-08-03T06:11:03.265Z,8.27
2022-08-03T06:13:29.749Z,10.27
2022-08-03T06:15:56.276Z,9.80
2022-08-03T06:18:24.470Z,6.57
2022-08-03T06:20:52.207Z,8.93
2022-08-03T06:23:19.404Z,8.57
2022-08-03T06:25:47.363Z,9.88
2022-08-03T06:28:42.413Z,9.00
2022-08-03T06:31:01.149Z,9.13
2022-08-03T06:34:30.757Z,12.20
2022-08-03T06:36:14.415Z,7.43
2022-08-03T06:38:40.979Z,7.25
2022-08-03T06:41:07.519Z,11.83
2022-08-03T06:43:37.405Z,9.95
2022-08-03T06:46:05.376Z,10.20
2022-08-03T06:48:32.376Z,10.07
2022-08-03T06:50:59.289Z,8.25
2022-08-03T06:53:26.136Z,10.17
2022-08-03T06:55:54.846Z,8.43
2022-08-03T06:58:22.312Z,10.82
2022-08-03T07:00:48.821Z,9.25
2022-08-03T07:03:15.612Z,8.20
2022-08-03T07:05:43.893Z,9.43
2022-08-03T07:08:10.533Z,7.35
2022-08-03T07:10:37.252Z,9.15
2022-08-03T07:13:04.561Z,10.30
2022-08-03T07:15:38.279Z,9.32
2022-08-03T07:18:17.616Z,7.90
2022-08-03T07:20:55.612Z,11.95
2022-08-03T07:23:22.005Z,14.15
2022-08-03T07:25:48.434Z,5.85
2022-08-03T07:28:14.952Z,7.75
2022-08-03T07:30:41.384Z,6.83
2022-08-03T07:33:07.863Z,12.55
2022-08-03T07:35:34.347Z,8.32
2022-08-03T07:38:00.825Z,8.00
2022-08-03T07:40:30.726Z,7.47
2022-08-03T07:42:59.003Z,8.00
2022-08-03T07:45:26.538Z,10.30
2022-08-03T07:47:54.320Z,9.82
2022-08-03T07:50:22.174Z,9.60
2022-08-03T07:52:53.076Z,9.70
2022-08-03T07:55:22.558Z,12.20
2022-08-03T07:58:06.477Z,8.82
2022-08-03T08:00:36.841Z,8.95
2022-08-03T08:03:04.899Z,9.95
2022-08-03T08:05:31.740Z,8.07
2022-08-03T08:07:58.648Z,12.17
2022-08-03T08:10:25.500Z,9.73
2022-08-03T08:12:52.412Z,11.43
2022-08-03T08:15:18.901Z,9.23
2022-08-03T08:17:50.159Z,12.32
2022-08-03T08:20:25.228Z,10.17
2022-08-03T08:23:01.553Z,10.80
2022-08-03T08:25:30.195Z,8.13
2022-08-03T08:28:29.831Z,10.13
2022-08-03T08:30:43.678Z,13.35
2022-08-03T08:33:15.698Z,6.60
2022-08-03T08:35:50.483Z,11.77
2022-08-03T08:38:16.894Z,10.75
2022-08-03T08:40:43.427Z,14.80
2022-08-03T08:43:09.881Z,7.88
2022-08-03T08:45:37.533Z,5.47
2022-08-03T08:48:08.117Z,8.35
2022-08-03T08:50:37.289Z,14.07
2022-08-03T08:53:07.157Z,9.23
2022-08-03T08:55:59.131Z,10.50
2022-08-03T08:58:24.586Z,11.87
2022-08-03T09:00:51.578Z,7.15
2022-08-03T09:03:22.573Z,11.63
2022-08-03T09:05:56.610Z,8.68
2022-08-03T09:08:23.626Z,9.57
2022-08-03T09:10:50.337Z,12.80
2022-08-03T09:13:17.039Z,7.78
2022-08-03T09:16:00.646Z,14.38
2022-08-03T09:18:32.669Z,9.73
2022-08-03T09:21:32.255Z,10.50
2022-08-03T09:24:05.710Z,8.17
2022-08-03T09:26:36.056Z,14.40
2022-08-03T09:29:13.778Z,10.15
2022-08-03T09:31:44.330Z,7.43
2022-08-03T09:34:15.965Z,13.80
2022-08-03T09:36:50.754Z,12.30
2022-08-03T09:39:19.380Z,12.10
2022-08-03T09:41:49.326Z,9.77
2022-08-03T09:44:24.211Z,12.30
2022-08-03T09:46:55.625Z,10.80
2022-08-03T09:49:22.912Z,8.67
2022-08-03T09:52:32.529Z,9.65
2022-08-03T09:54:36.328Z,9.57
2022-08-03T09:57:03.070Z,9.65
2022-08-03T09:59:32.036Z,14.35
2022-08-03T10:02:00.487Z,6.67
2022-08-03T10:04:27.625Z,11.18
2022-08-03T10:07:09.553Z,10.13
2022-08-03T10:09:37.046Z,10.18
2022-08-03T10:12:13.768Z,9.45
2022-08-03T10:14:42.118Z,8.90
2022-08-03T10:17:09.727Z,8.90
2022-08-03T10:19:36.588Z,11.93
2022-08-03T10:22:07.789Z,6.43
2022-08-03T10:24:36.398Z,11.27
2022-08-03T10:27:07.130Z,9.03
2022-08-03T10:29:47.186Z,6.30
2022-08-03T10:32:30.119Z,8.35
2022-08-03T10:35:20.932Z,9.35
2022-08-03T10:38:09.736Z,7.65
2022-08-03T10:40:48.597Z,11.20
2022-08-03T10:43:23.169Z,6.10
2022-08-03T10:45:51.071Z,10.52
2022-08-03T10:48:19.411Z,7.90
2022-08-03T10:50:48.448Z,5.47
2022-08-03T10:53:16.633Z,8.93
2022-08-03T10:56:05.892Z,9.15
2022-08-03T10:58:56.832Z,8.10
2022-08-03T11:02:00.288Z,7.30
2022-08-03T11:04:29.523Z,8.27
2022-08-03T11:07:23.514Z,7.27
2022-08-03T11:09:52.385Z,8.38
2022-08-03T11:12:32.959Z,8.48
2022-08-03T11:15:05.762Z,9.30
2022-08-03T11:17:33.902Z,10.15
2022-08-03T11:20:13.615Z,9.73
2022-08-03T11:22:54.538Z,9.60
2022-08-03T11:25:53.223Z,6.25
2022-08-03T11:28:25.975Z,7.53
2022-08-03T11:30:53.325Z,7.65
2022-08-03T11:33:30.574Z,5.47
2022-08-03T11:36:01.894Z,9.10
2022-08-03T11:38:28.372Z,7.63
2022-08-03T11:40:55.170Z,11.20
2022-08-03T11:43:31.626Z,6.45
2022-08-03T11:45:59.409Z,8.43
2022-08-03T11:48:28.380Z,7.03
2022-08-03T11:50:54.904Z,9.98
2022-08-03T11:53:21.427Z,8.82
2022-08-03T11:55:53.102Z,5.50
2022-08-03T11:59:15.301Z,7.20
2022-08-03T12:01:12.500Z,6.22
2022-08-03T12:03:39.026Z,6.15
2022-08-03T12:06:10.581Z,5.65
2022-08-03T12:08:37.153Z,6.45
2022-08-03T12:11:06.667Z,5.97
2022-08-03T12:14:26.992Z,6.07
2022-08-03T12:16:28.762Z,6.32
2022-08-03T12:18:57.341Z,7.57
2022-08-03T12:21:24.927Z,5.80
2022-08-03T12:23:57.270Z,13.20
2022-08-03T12:26:23.697Z,6.88
2022-08-03T12:28:50.380Z,9.60
2022-08-03T12:31:17.145Z,6.32
2022-08-03T12:34:03.161Z,6.82
2022-08-03T12:36:35.036Z,5.33
2022-08-03T12:39:04.241Z,3.47
2022-08-03T12:41:36.722Z,4.45
2022-08-03T12:44:05.309Z,5.18
2022-08-03T12:46:47.418Z,2.60
2022-08-03T12:49:17.303Z,3.50
2022-08-03T12:51:43.706Z,5.82
2022-08-03T12:54:16.845Z,3.70
2022-08-03T12:57:16.190Z,3.42
2022-08-03T12:59:53.306Z,4.65
2022-08-03T13:02:26.012Z,2.73
2022-08-03T13:04:54.225Z,4.72
2022-08-03T13:07:22.171Z,3.58
2022-08-03T13:09:49.754Z,3.63
2022-08-03T13:12:18.527Z,5.57
2022-08-03T13:14:48.081Z,4.37
2022-08-03T13:17:16.819Z,5.32
2022-08-03T13:19:43.863Z,6.90
2022-08-03T13:22:28.857Z,5.72
2022-08-03T13:24:57.468Z,7.65
2022-08-03T13:28:11.075Z,4.80
2022-08-03T13:30:21.058Z,3.50
2022-08-03T13:32:58.577Z,4.88
2022-08-03T13:35:25.353Z,4.22
2022-08-03T13:37:51.791Z,5.32
2022-08-03T13:40:18.322Z,9.37
2022-08-03T13:42:44.715Z,5.70
2022-08-03T13:45:11.463Z,5.80
2022-08-03T13:47:37.972Z,4.75
2022-08-03T13:50:04.927Z,5.43
2022-08-03T13:52:32.842Z,6.37
2022-08-03T13:55:00.070Z,5.85
2022-08-03T13:58:19.001Z,4.35
2022-08-03T14:00:26.686Z,4.65
2022-08-03T14:03:01.866Z,3.92
2022-08-03T14:05:32.258Z,5.03
2022-08-03T14:08:03.832Z,3.35
2022-08-03T14:10:32.159Z,4.70
2022-08-03T14:13:00.264Z,4.57
2022-08-03T14:15:28.455Z,4.07
2022-08-03T14:17:55.172Z,3.63
2022-08-03T14:20:36.882Z,6.07
2022-08-03T14:23:06.736Z,3.95
2022-08-03T14:25:49.851Z,3.28
2022-08-03T14:28:18.515Z,4.25
2022-08-03T14:30:45.127Z,3.80
2022-08-03T14:33:11.822Z,2.35
2022-08-03T14:35:38.251Z,3.38
2022-08-03T14:38:04.711Z,2.30
2022-08-03T14:40:34.061Z,2.30
2022-08-03T14:43:00.553Z,3.10
2022-08-03T14:45:26.996Z,3.15
2022-08-03T14:50:33.566Z,2.30
2022-08-03T14:50:47.005Z,2.63
2022-08-03T14:53:17.580Z,6.22
2022-08-03T14:55:50.020Z,3.13
2022-08-03T14:58:19.766Z,3.42
2022-08-03T15:00:49.214Z,2.85
2022-08-03T15:03:16.889Z,4.43
2022-08-03T15:05:43.773Z,5.38
2022-08-03T15:08:10.167Z,4.10
2022-08-03T15:10:43.757Z,4.40
2022-08-03T15:13:11.991Z,4.82
2022-08-03T15:15:38.524Z,5.90
2022-08-03T15:18:05.018Z,4.28
2022-08-03T15:20:43.344Z,3.03
2022-08-03T15:23:11.554Z,3.80
2022-08-03T15:26:03.597Z,2.30
2022-08-03T15:28:24.461Z,3.53
2022-08-03T15:30:54.335Z,2.78
2022-08-03T15:33:20.885Z,4.83
2022-08-03T15:35:47.761Z,4.10
2022-08-03T15:38:14.382Z,4.80
2022-08-03T15:40:41.262Z,5.50
2022-08-03T15:43:07.973Z,5.03
2022-08-03T15:45:36.647Z,3.70
2022-08-03T15:48:07.015Z,2.63
2022-08-03T15:50:33.664Z,2.13
2022-08-03T15:53:00.134Z,4.00
2022-08-03T15:55:27.229Z,2.70
2022-08-03T15:59:03.435Z,4.00
2022-08-03T16:00:41.649Z,3.25
2022-08-03T16:03:08.150Z,2.50
2022-08-03T16:05:35.186Z,2.63
2022-08-03T16:08:06.211Z,2.70
2022-08-03T16:10:33.559Z,2.73
2022-08-03T16:13:00.317Z,3.97
2022-08-03T16:15:27.155Z,3.35
2022-08-03T16:17:53.716Z,6.22
2022-08-03T16:20:30.931Z,2.47
2022-08-03T16:23:00.579Z,4.83
2022-08-03T16:25:28.209Z,3.28
2022-08-03T16:28:00.450Z,2.45
2022-08-03T16:30:34.052Z,1.73
2022-08-03T16:33:00.584Z,3.97
2022-08-03T16:35:27.010Z,2.27
2022-08-03T16:37:56.870Z,2.70
2022-08-03T16:40:24.960Z,5.18
2022-08-03T16:42:51.651Z,6.47
2022-08-03T16:45:18.285Z,3.30
2022-08-03T16:47:44.774Z,2.43
2022-08-03T16:50:18.988Z,4.63
2022-08-03T16:52:48.352Z,1.98
2022-08-03T16:55:18.441Z,3.15
2022-08-03T16:58:03.345Z,6.05
2022-08-03T17:00:33.182Z,3.60
2022-08-03T17:03:04.386Z,5.43
2022-08-03T17:05:32.660Z,2.53
2022-08-03T17:08:15.802Z,3.35
2022-08-03T17:10:45.126Z,2.40
2022-08-03T17:13:21.798Z,3.60
2022-08-03T17:15:58.013Z,2.53
2022-08-03T17:18:34.031Z,5.18
2022-08-03T17:21:05.037Z,4.13
2022-08-03T17:23:44.327Z,3.13
2022-08-03T17:26:21.242Z,2.60
2022-08-03T17:28:57.353Z,3.65
2022-08-03T17:31:31.312Z,2.42
2022-08-03T17:34:04.271Z,2.45
2022-08-03T17:37:02.647Z,3.30
2022-08-03T17:39:30.879Z,1.70
2022-08-03T17:42:00.739Z,3.95
2022-08-03T17:44:35.082Z,3.15
2022-08-03T17:47:08.135Z,3.17
2022-08-03T17:49:40.044Z,2.97
2022-08-03T17:52:34.882Z,2.43
2022-08-03T17:55:57.602Z,2.65
2022-08-03T17:58:15.989Z,5.57
2022-08-03T18:01:04.753Z,6.28
2022-08-03T18:03:58.326Z,3.40
2022-08-03T18:06:30.601Z,1.57
2022-08-03T18:09:04.686Z,4.05
2022-08-03T18:11:35.638Z,2.08
2022-08-03T18:14:17.214Z,3.17
2022-08-03T18:16:49.084Z,2.65
2022-08-03T18:19:16.896Z,3.00
2022-08-03T18:22:02.749Z,3.20
2022-08-03T18:24:30.809Z,5.82
2022-08-03T18:27:03.142Z,2.47
2022-08-03T18:29:30.575Z,3.05
2022-08-03T18:32:06.807Z,3.80
2022-08-03T18:34:41.104Z,2.72
2022-08-03T18:37:26.008Z,4.15
2022-08-03T18:39:57.973Z,1.67
2022-08-03T18:42:26.233Z,2.15
2022-08-03T18:44:56.128Z,3.63
2022-08-03T18:47:52.069Z,3.65
2022-08-03T18:50:22.503Z,3.45
2022-08-03T18:52:59.377Z,5.47
2022-08-03T18:55:35.809Z,2.95
2022-08-03T18:58:05.106Z,1.57
2022-08-03T19:03:24.163Z,9.15
2022-08-03T19:06:09.457Z,5.25
2022-08-03T19:08:49.351Z,2.72
2022-08-03T19:11:28.293Z,2.87
2022-08-03T19:13:59.220Z,3.40
2022-08-03T19:16:38.797Z,4.00
2022-08-03T19:19:10.578Z,5.40
2022-08-03T19:21:41.280Z,4.97
2022-08-03T19:24:13.582Z,2.63
2022-08-03T19:26:41.319Z,1.98
2022-08-03T19:31:59.781Z,3.30
2022-08-03T19:34:29.241Z,7.22
2022-08-03T19:36:58.295Z,2.73
2022-08-03T19:39:25.648Z,4.20
2022-08-03T19:42:08.142Z,4.35
2022-08-03T19:44:38.604Z,3.35
2022-08-03T19:47:11.222Z,3.15
2022-08-03T19:50:06.001Z,4.20
2022-08-03T19:52:39.497Z,4.28
2022-08-03T19:55:12.133Z,3.75
2022-08-03T19:57:42.292Z,2.33
2022-08-03T20:00:12.284Z,3.65
2022-08-03T20:02:41.323Z,2.87
2022-08-03T20:05:14.863Z,2.60
2022-08-03T20:07:47.456Z,3.25
2022-08-03T20:10:15.864Z,4.35
2022-08-03T20:12:44.549Z,3.00
2022-08-03T20:15:22.227Z,5.50
2022-08-03T20:17:56.390Z,1.83
2022-08-03T20:20:32.609Z,2.65
2022-08-03T20:23:03.695Z,3.63
2022-08-03T20:25:48.647Z,3.75
2022-08-03T20:28:50.551Z,2.73
2022-08-03T20:31:20.103Z,3.20
2022-08-03T20:33:49.250Z,4.32
2022-08-03T20:36:17.792Z,10.13
2022-08-03T20:38:48.324Z,2.80
2022-08-03T20:41:17.860Z,2.63
2022-08-03T20:43:44.828Z,3.65
2022-08-03T20:46:29.621Z,3.30
2022-08-03T20:48:59.638Z,3.58
2022-08-03T20:51:50.626Z,2.40
2022-08-03T20:54:29.820Z,2.40
2022-08-03T20:57:03.633Z,4.97
2022-08-03T20:59:46.984Z,4.93
2022-08-03T21:02:19.220Z,6.13
2022-08-03T21:04:47.421Z,3.28
2022-08-03T21:07:24.194Z,3.53
2022-08-03T21:09:55.488Z,3.75
2022-08-03T21:12:48.144Z,3.70
2022-08-03T21:13:02.204Z,1.50
2022-08-03T21:13:09.235Z,4.05
2022-08-03T21:16:02.402Z,5.00
2022-08-03T21:18:11.011Z,2.88
2022-08-03T21:20:38.951Z,4.10
2022-08-03T21:23:08.854Z,8.48
2022-08-03T21:25:36.207Z,7.85
2022-08-03T21:28:07.569Z,3.65
2022-08-03T21:30:35.006Z,5.40
2022-08-03T21:33:01.759Z,2.60
2022-08-03T21:35:28.511Z,4.18
2022-08-03T21:38:13.660Z,3.53
2022-08-03T21:40:41.028Z,5.47
2022-08-03T21:43:07.966Z,1.92
2022-08-03T21:45:48.299Z,4.70
2022-08-03T21:48:16.588Z,4.85
2022-08-03T21:50:43.983Z,1.85
2022-08-03T21:53:11.278Z,4.40
2022-08-03T21:55:40.076Z,2.50
2022-08-03T21:58:06.853Z,3.07
2022-08-03T22:00:34.850Z,2.90
2022-08-03T22:03:15.286Z,7.28
2022-08-03T22:05:44.767Z,2.67
2022-08-03T22:08:13.570Z,2.10
2022-08-03T22:10:43.053Z,3.13
2022-08-03T22:13:09.585Z,4.50
2022-08-03T22:15:36.096Z,3.17
2022-08-03T22:18:03.724Z,2.90
2022-08-03T22:20:30.320Z,4.57
2022-08-03T22:23:01.674Z,5.87
2022-08-03T22:25:31.393Z,4.72
2022-08-03T22:28:01.428Z,4.38
2022-08-03T22:30:29.253Z,4.70
2022-08-03T22:32:56.301Z,4.00
2022-08-03T22:35:24.957Z,3.93
2022-08-03T22:37:54.143Z,4.18
2022-08-03T22:40:21.251Z,2.42
2022-08-03T22:42:52.498Z,3.20
2022-08-03T22:46:07.771Z,3.03
2022-08-03T22:48:08.114Z,5.33
2022-08-03T22:50:34.966Z,6.22
2022-08-03T22:53:01.629Z,4.10
2022-08-03T22:55:28.862Z,2.13
2022-08-03T22:57:56.143Z,3.20
2022-08-03T23:00:23.875Z,4.63
2022-08-03T23:02:51.755Z,3.00
2022-08-03T23:06:01.900Z,3.28
2022-08-03T23:08:14.635Z,4.78
2022-08-03T23:10:46.743Z,4.20
2022-08-03T23:13:16.565Z,5.30
2022-08-03T23:15:55.668Z,4.85
2022-08-03T23:18:23.515Z,5.38
2022-08-03T23:20:52.748Z,5.78
2022-08-03T23:23:20.541Z,4.85
2022-08-03T23:25:49.612Z,3.03
2022-08-03T23:28:16.582Z,5.97
2022-08-03T23:30:44.662Z,4.40
2022-08-03T23:33:16.489Z,4.45
2022-08-03T23:36:28.113Z,3.00
2022-08-03T23:38:48.907Z,5.00
2022-08-03T23:41:18.690Z,5.82
2022-08-03T23:43:53.523Z,3.03
2022-08-03T23:46:25.763Z,1.88
2022-08-03T23:48:53.835Z,4.32
2022-08-03T23:51:34.866Z,3.67
2022-08-03T23:54:20.123Z,5.18
2022-08-03T23:57:05.007Z,3.70
2022-08-03T23:59:50.455Z,4.43
